createdAt,value
2022-12-03T00:02:00.516Z,24.73
2022-12-03T00:04:27.209Z,24.60
2022-12-03T00:06:53.897Z,23.55
2022-12-03T00:09:20.509Z,26.23
2022-12-03T00:11:47.104Z,25.02
2022-12-03T00:14:13.680Z,25.02
2022-12-03T00:16:40.368Z,26.73
2022-12-03T00:19:07.725Z,24.27
2022-12-03T00:21:34.674Z,27.45
2022-12-03T00:24:01.327Z,25.55
2022-12-03T00:26:27.980Z,23.63
2022-12-03T00:28:55.261Z,24.00
2022-12-03T00:31:23.560Z,31.45
2022-12-03T00:33:53.430Z,25.33
2022-12-03T00:36:20.479Z,27.98
2022-12-03T00:38:47.205Z,28.40
2022-12-03T00:41:13.800Z,25.80
2022-12-03T00:43:40.371Z,26.67
2022-12-03T00:46:07.055Z,25.55
2022-12-03T00:48:33.756Z,23.33
2022-12-03T00:51:00.357Z,25.88
2022-12-03T00:53:27.433Z,25.80
2022-12-03T00:55:54.102Z,26.80
2022-12-03T00:58:20.707Z,26.48
2022-12-03T01:00:47.562Z,26.50
2022-12-03T01:03:14.138Z,25.13
2022-12-03T01:05:40.706Z,28.67
2022-12-03T01:08:07.323Z,23.95
2022-12-03T01:10:33.989Z,23.40
2022-12-03T01:13:00.590Z,26.75
2022-12-03T01:15:27.420Z,27.75
2022-12-03T01:17:54.346Z,28.27
2022-12-03T01:20:21.096Z,24.30
2022-12-03T01:22:47.753Z,25.52
2022-12-03T01:25:14.616Z,26.02
2022-12-03T01:27:41.216Z,25.42
2022-12-03T01:30:08.806Z,25.10
2022-12-03T01:32:35.491Z,26.38
2022-12-03T01:35:02.100Z,24.23
2022-12-03T01:37:28.881Z,25.85
2022-12-03T01:39:55.541Z,26.50
2022-12-03T01:42:25.555Z,30.25
2022-12-03T01:44:57.982Z,24.83
2022-12-03T01:47:34.679Z,28.85
2022-12-03T01:50:07.562Z,25.27
2022-12-03T01:52:38.003Z,26.77
2022-12-03T01:55:11.606Z,27.75
2022-12-03T01:57:42.227Z,27.38
2022-12-03T02:00:17.543Z,27.30
2022-12-03T02:02:45.239Z,24.98
2022-12-03T02:05:21.101Z,27.48
2022-12-03T02:07:47.771Z,30.38
2022-12-03T02:10:16.308Z,28.17
2022-12-03T02:12:49.084Z,25.90
2022-12-03T02:15:16.022Z,27.42
2022-12-03T02:17:43.315Z,25.97
2022-12-03T02:20:11.643Z,25.45
2022-12-03T02:22:46.962Z,26.70
2022-12-03T02:25:19.541Z,28.80
2022-12-03T02:27:47.805Z,29.00
2022-12-03T02:30:18.454Z,28.48
2022-12-03T02:32:45.357Z,27.10
2022-12-03T02:35:20.617Z,28.27
2022-12-03T02:37:50.613Z,27.42
2022-12-03T02:40:21.674Z,24.30
2022-12-03T02:42:51.025Z,31.83
2022-12-03T02:45:38.288Z,25.10
2022-12-03T02:48:38.401Z,30.50
2022-12-03T02:51:10.269Z,32.50
2022-12-03T02:53:47.413Z,29.80
2022-12-03T02:56:18.192Z,30.73
2022-12-03T02:58:48.393Z,29.05
2022-12-03T03:01:15.734Z,28.60
2022-12-03T03:03:45.438Z,29.88
2022-12-03T03:06:12.726Z,28.90
2022-12-03T03:08:40.299Z,25.70
2022-12-03T03:11:07.026Z,33.72
2022-12-03T03:13:35.895Z,29.58
2022-12-03T03:16:05.202Z,33.75
2022-12-03T03:18:33.355Z,30.83
2022-12-03T03:21:00.541Z,32.47
2022-12-03T03:23:27.224Z,27.77
2022-12-03T03:26:00.957Z,30.52
2022-12-03T03:28:29.399Z,30.65
2022-12-03T03:30:57.560Z,26.38
2022-12-03T03:33:24.932Z,29.73
2022-12-03T03:35:51.908Z,29.38
2022-12-03T03:38:20.416Z,30.53
2022-12-03T03:40:49.358Z,28.05
2022-12-03T03:43:16.283Z,31.30
2022-12-03T03:45:44.229Z,32.33
2022-12-03T03:50:39.011Z,32.35
2022-12-03T03:53:06.034Z,34.37
2022-12-03T03:55:33.691Z,33.33
2022-12-03T03:58:00.295Z,31.05
2022-12-03T04:00:28.099Z,30.48
2022-12-03T04:02:54.734Z,31.10
2022-12-03T04:05:23.976Z,31.40
2022-12-03T04:07:51.083Z,34.38
2022-12-03T04:10:36.304Z,35.45
2022-12-03T04:13:03.227Z,28.48
2022-12-03T04:15:30.114Z,31.33
2022-12-03T04:18:15.542Z,28.60
2022-12-03T04:20:42.641Z,34.70
2022-12-03T04:23:09.491Z,32.65
2022-12-03T04:25:54.834Z,30.85
2022-12-03T04:28:39.787Z,32.97
2022-12-03T04:31:25.258Z,29.20
2022-12-03T04:34:11.031Z,35.72
2022-12-03T04:36:37.853Z,33.33
2022-12-03T04:39:04.646Z,31.25
2022-12-03T04:41:31.296Z,36.75
2022-12-03T04:44:16.168Z,35.90
2022-12-03T04:46:42.794Z,34.13
2022-12-03T04:49:09.449Z,32.35
2022-12-03T04:51:36.087Z,32.50
2022-12-03T04:54:02.669Z,37.38
2022-12-03T04:56:29.860Z,30.52
2022-12-03T04:58:56.411Z,33.17
2022-12-03T05:01:23.154Z,33.60
2022-12-03T05:03:49.766Z,35.10
2022-12-03T05:06:16.351Z,34.22
2022-12-03T05:08:42.921Z,38.35
2022-12-03T05:11:09.587Z,36.70
2022-12-03T05:13:36.362Z,35.55
2022-12-03T05:16:02.973Z,35.70
2022-12-03T05:18:30.126Z,37.28
2022-12-03T05:20:56.775Z,36.42
2022-12-03T05:23:23.877Z,36.05
2022-12-03T05:25:50.592Z,35.28
2022-12-03T05:28:17.309Z,34.33
2022-12-03T05:30:44.063Z,35.95
2022-12-03T05:33:10.701Z,34.03
2022-12-03T05:35:37.307Z,39.05
2022-12-03T05:38:04.367Z,33.17
2022-12-03T05:40:31.069Z,33.58
2022-12-03T05:42:57.847Z,36.10
2022-12-03T05:45:29.566Z,39.90
2022-12-03T05:47:57.304Z,39.22
2022-12-03T05:50:26.500Z,35.45
2022-12-03T05:52:54.690Z,33.65
2022-12-03T05:55:21.435Z,35.08
2022-12-03T05:57:48.171Z,36.05
2022-12-03T06:00:20.923Z,32.72
2022-12-03T06:02:47.839Z,35.72
2022-12-03T06:05:15.556Z,38.17
2022-12-03T06:07:42.715Z,30.60
2022-12-03T06:10:11.963Z,35.88
2022-12-03T06:12:38.607Z,37.58
2022-12-03T06:15:06.125Z,37.08
2022-12-03T06:17:33.361Z,39.10
2022-12-03T06:19:59.985Z,37.75
2022-12-03T06:22:27.081Z,35.15
2022-12-03T06:24:54.532Z,36.40
2022-12-03T06:27:21.293Z,36.90
2022-12-03T06:29:47.857Z,37.60
2022-12-03T06:32:14.817Z,38.92
2022-12-03T06:34:41.562Z,36.43
2022-12-03T06:37:08.177Z,41.03
2022-12-03T06:39:34.818Z,36.95
2022-12-03T06:42:01.661Z,34.33
2022-12-03T06:44:28.359Z,35.42
2022-12-03T06:46:55.141Z,38.95
2022-12-03T06:49:21.827Z,38.63
2022-12-03T06:51:48.500Z,35.65
2022-12-03T06:54:15.123Z,37.25
2022-12-03T06:56:45.081Z,34.05
2022-12-03T06:59:12.234Z,36.95
2022-12-03T07:01:38.870Z,35.67
2022-12-03T07:04:05.685Z,34.67
2022-12-03T07:06:32.312Z,37.70
2022-12-03T07:08:58.904Z,42.58
2022-12-03T07:11:31.418Z,37.70
2022-12-03T07:14:04.640Z,35.50
2022-12-03T07:16:33.135Z,37.25
2022-12-03T07:18:59.946Z,39.38
2022-12-03T07:21:26.614Z,38.25
2022-12-03T07:23:53.228Z,38.78
2022-12-03T07:26:19.882Z,38.35
2022-12-03T07:28:48.189Z,38.88
2022-12-03T07:31:15.281Z,45.85
2022-12-03T07:33:42.399Z,40.85
2022-12-03T07:36:09.906Z,43.73
2022-12-03T07:38:36.677Z,41.92
2022-12-03T07:41:03.683Z,39.03
2022-12-03T07:43:30.787Z,42.45
2022-12-03T07:45:57.358Z,43.45
2022-12-03T07:48:23.941Z,38.60
2022-12-03T07:50:50.645Z,40.03
2022-12-03T07:53:17.324Z,40.78
2022-12-03T07:55:43.933Z,40.30
2022-12-03T08:00:38.361Z,43.95
2022-12-03T08:03:04.976Z,46.28
2022-12-03T08:05:31.615Z,44.05
2022-12-03T08:07:58.295Z,40.45
2022-12-03T08:10:26.664Z,38.85
2022-12-03T08:13:00.115Z,42.58
2022-12-03T08:15:33.668Z,33.83
2022-12-03T08:18:12.873Z,41.35
2022-12-03T08:20:41.442Z,42.35
2022-12-03T08:23:13.957Z,34.72
2022-12-03T08:28:25.715Z,42.03
2022-12-03T08:31:20.628Z,47.78
2022-12-03T08:33:49.630Z,40.38
2022-12-03T08:36:19.462Z,38.88
2022-12-03T08:38:51.036Z,39.30
2022-12-03T08:41:39.487Z,31.17
2022-12-03T08:44:13.982Z,38.72
2022-12-03T08:46:40.614Z,41.20
2022-12-03T08:49:08.754Z,36.35
2022-12-03T08:51:35.388Z,35.72
2022-12-03T08:54:12.744Z,41.15
2022-12-03T08:56:39.363Z,34.33
2022-12-03T08:59:26.006Z,38.85
2022-12-03T09:01:56.152Z,41.65
2022-12-03T09:04:37.610Z,38.08
2022-12-03T09:07:05.677Z,38.70
2022-12-03T09:09:32.335Z,41.22
2022-12-03T09:12:02.043Z,41.03
2022-12-03T09:14:28.964Z,45.63
2022-12-03T09:16:56.664Z,59.70
2022-12-03T09:19:24.830Z,56.55
2022-12-03T09:21:52.177Z,35.38
2022-12-03T09:24:18.824Z,38.42
2022-12-03T09:26:45.427Z,44.55
2022-12-03T09:29:12.934Z,39.65
2022-12-03T09:31:40.457Z,41.75
2022-12-03T09:34:07.764Z,39.95
2022-12-03T09:36:34.381Z,37.70
2022-12-03T09:39:01.030Z,41.38
2022-12-03T09:41:27.837Z,36.75
2022-12-03T09:44:17.229Z,63.85
2022-12-03T09:46:42.924Z,44.90
2022-12-03T09:49:16.015Z,41.85
2022-12-03T09:51:44.679Z,41.83
2022-12-03T09:54:25.866Z,36.30
2022-12-03T09:56:54.719Z,39.00
2022-12-03T09:59:24.221Z,37.38
2022-12-03T10:01:52.953Z,39.30
2022-12-03T10:04:20.015Z,38.85
2022-12-03T10:06:47.361Z,36.10
2022-12-03T10:09:20.820Z,36.92
2022-12-03T10:11:48.227Z,37.70
2022-12-03T10:14:17.186Z,36.88
2022-12-03T10:16:43.937Z,34.90
2022-12-03T10:19:20.387Z,36.55
2022-12-03T10:21:47.210Z,34.70
2022-12-03T10:24:16.811Z,35.88
2022-12-03T10:26:45.393Z,34.15
2022-12-03T10:29:21.062Z,31.88
2022-12-03T10:32:01.797Z,39.15
2022-12-03T10:34:31.850Z,38.05
2022-12-03T10:37:19.885Z,35.75
2022-12-03T10:40:09.188Z,35.03
2022-12-03T10:42:38.929Z,38.13
2022-12-03T10:45:13.318Z,32.45
2022-12-03T10:47:40.166Z,39.92
2022-12-03T10:50:18.858Z,40.47
2022-12-03T10:52:46.637Z,38.63
2022-12-03T10:55:14.178Z,35.10
2022-12-03T10:57:45.295Z,36.03
2022-12-03T11:00:19.332Z,36.50
2022-12-03T11:02:54.660Z,35.97
2022-12-03T11:05:27.393Z,69.97
2022-12-03T11:07:54.477Z,36.08
2022-12-03T11:10:21.574Z,36.45
2022-12-03T11:13:25.883Z,42.47
2022-12-03T11:15:53.301Z,35.13
2022-12-03T11:18:38.151Z,35.97
2022-12-03T11:21:15.251Z,34.03
2022-12-03T11:23:44.714Z,39.05
2022-12-03T11:26:17.097Z,36.92
2022-12-03T11:28:56.114Z,35.38
2022-12-03T11:31:43.476Z,36.45
2022-12-03T11:34:22.461Z,36.17
2022-12-03T11:37:11.084Z,34.22
2022-12-03T11:39:50.559Z,36.13
2022-12-03T11:42:25.977Z,33.60
2022-12-03T11:45:04.686Z,33.38
2022-12-03T11:47:41.406Z,34.45
2022-12-03T11:50:21.019Z,35.25
2022-12-03T11:52:54.516Z,45.33
2022-12-03T11:55:34.748Z,37.60
2022-12-03T11:58:15.061Z,37.78
2022-12-03T12:01:03.314Z,45.80
2022-12-03T12:03:33.110Z,73.78
2022-12-03T12:06:02.320Z,38.78
2022-12-03T12:08:29.535Z,32.22
2022-12-03T12:10:56.216Z,32.97
2022-12-03T12:13:28.717Z,32.08
2022-12-03T12:15:59.017Z,33.50
2022-12-03T12:18:40.635Z,41.42
2022-12-03T12:21:47.808Z,33.75
2022-12-03T12:24:48.236Z,35.55
2022-12-03T12:27:16.136Z,37.63
2022-12-03T12:32:18.342Z,38.25
2022-12-03T12:34:49.791Z,41.83
2022-12-03T12:37:32.101Z,34.83
2022-12-03T12:40:00.749Z,36.20
2022-12-03T12:42:36.467Z,36.90
2022-12-03T12:45:15.612Z,34.30
2022-12-03T12:48:07.166Z,40.35
2022-12-03T12:50:34.446Z,40.25
2022-12-03T12:53:33.137Z,32.67
2022-12-03T12:56:27.063Z,35.70
2022-12-03T12:58:54.807Z,36.78
2022-12-03T13:01:25.889Z,37.70
2022-12-03T13:03:53.303Z,32.78
2022-12-03T13:06:26.089Z,36.63
2022-12-03T13:08:53.029Z,30.25
2022-12-03T13:11:42.234Z,35.73
2022-12-03T13:14:19.186Z,34.83
2022-12-03T13:16:47.746Z,34.40
2022-12-03T13:19:24.019Z,35.50
2022-12-03T13:21:53.789Z,36.10
2022-12-03T13:24:31.357Z,35.47
2022-12-03T13:27:00.419Z,35.25
2022-12-03T13:29:27.947Z,30.98
2022-12-03T13:32:09.552Z,34.78
2022-12-03T13:34:36.269Z,35.53
2022-12-03T13:37:13.617Z,35.40
2022-12-03T13:39:46.646Z,30.73
2022-12-03T13:42:41.695Z,36.22
2022-12-03T13:45:14.745Z,32.42
2022-12-03T13:47:47.817Z,37.30
2022-12-03T13:50:40.302Z,31.38
2022-12-03T13:53:21.343Z,34.25
2022-12-03T13:55:51.051Z,32.80
2022-12-03T13:58:17.922Z,36.72
2022-12-03T14:00:44.647Z,32.30
2022-12-03T14:03:11.409Z,40.58
2022-12-03T14:05:37.993Z,35.60
2022-12-03T14:08:06.059Z,38.92
2022-12-03T14:10:33.240Z,37.15
2022-12-03T14:12:59.900Z,35.60
2022-12-03T14:15:26.701Z,37.80
2022-12-03T14:17:53.803Z,36.75
2022-12-03T14:20:20.926Z,42.22
2022-12-03T14:22:47.621Z,40.43
2022-12-03T14:25:15.037Z,35.63
2022-12-03T14:27:41.768Z,36.92
2022-12-03T14:30:09.241Z,36.78
2022-12-03T14:32:35.905Z,37.88
2022-12-03T14:35:08.185Z,40.50
2022-12-03T14:37:37.051Z,43.17
2022-12-03T14:40:07.047Z,43.22
2022-12-03T14:42:33.707Z,38.95
2022-12-03T14:45:00.479Z,37.47
2022-12-03T14:47:27.163Z,40.47
2022-12-03T14:49:53.996Z,36.58
2022-12-03T14:52:20.902Z,38.17
2022-12-03T14:54:47.521Z,38.95
2022-12-03T14:57:15.382Z,38.45
2022-12-03T14:59:43.381Z,40.00
2022-12-03T15:07:06.454Z,43.70
2022-12-03T15:09:33.118Z,49.20
2022-12-03T15:12:00.113Z,42.30
2022-12-03T15:14:27.000Z,40.58
2022-12-03T15:16:53.705Z,42.72
2022-12-03T15:19:20.339Z,43.83
2022-12-03T15:21:46.925Z,44.40
2022-12-03T15:24:13.583Z,45.58
2022-12-03T15:26:40.185Z,41.10
2022-12-03T15:29:06.776Z,39.45
2022-12-03T15:31:33.531Z,38.70
2022-12-03T15:34:00.184Z,44.58
2022-12-03T15:36:26.842Z,44.25
2022-12-03T15:38:53.605Z,42.40
2022-12-03T15:41:38.149Z,43.97
2022-12-03T15:44:05.333Z,41.80
2022-12-03T15:46:32.049Z,51.10
2022-12-03T15:48:59.587Z,45.42
2022-12-03T15:51:26.178Z,50.17
2022-12-03T15:53:53.091Z,51.88
2022-12-03T15:56:19.760Z,51.77
2022-12-03T15:58:46.413Z,45.92
2022-12-03T16:01:13.698Z,44.55
2022-12-03T16:03:40.751Z,43.03
2022-12-03T16:06:07.792Z,47.35
2022-12-03T16:08:34.519Z,49.63
2022-12-03T16:11:01.098Z,47.88
2022-12-03T16:13:27.729Z,42.28
2022-12-03T16:15:54.447Z,42.30
2022-12-03T16:18:21.145Z,47.67
2022-12-03T16:20:47.742Z,42.08
2022-12-03T16:23:14.357Z,44.50
2022-12-03T16:25:40.964Z,43.58
2022-12-03T16:28:07.590Z,48.20
2022-12-03T16:30:34.313Z,46.83
2022-12-03T16:33:00.976Z,42.15
2022-12-03T16:35:27.780Z,42.67
2022-12-03T16:37:54.392Z,47.35
2022-12-03T16:40:20.974Z,42.08
2022-12-03T16:42:47.572Z,46.53
2022-12-03T16:45:33.407Z,44.03
2022-12-03T16:48:01.762Z,50.80
2022-12-03T16:50:30.164Z,46.10
2022-12-03T16:52:57.712Z,46.13
2022-12-03T16:55:24.493Z,39.83
2022-12-03T16:57:51.103Z,37.70
2022-12-03T17:00:17.960Z,46.40
2022-12-03T17:02:44.675Z,49.50
2022-12-03T17:05:11.381Z,52.17
2022-12-03T17:07:38.091Z,53.05
2022-12-03T17:10:05.815Z,44.80
2022-12-03T17:13:00.791Z,49.85
2022-12-03T17:15:19.106Z,52.47
2022-12-03T17:17:45.708Z,64.43
2022-12-03T17:20:14.602Z,45.60
2022-12-03T17:22:41.772Z,54.72
2022-12-03T17:25:09.409Z,49.17
2022-12-03T17:27:40.810Z,46.35
2022-12-03T17:30:13.009Z,44.63
2022-12-03T17:32:39.792Z,50.17
2022-12-03T17:35:07.197Z,42.55
2022-12-03T17:37:34.002Z,50.67
2022-12-03T17:40:00.809Z,48.97
2022-12-03T17:42:27.574Z,44.50
2022-12-03T17:44:54.169Z,44.92
2022-12-03T17:47:24.279Z,45.40
2022-12-03T17:49:50.904Z,48.83
2022-12-03T17:52:17.542Z,47.15
2022-12-03T17:55:09.183Z,45.20
2022-12-03T17:57:31.222Z,47.03
2022-12-03T17:59:57.829Z,45.10
2022-12-03T18:02:24.449Z,45.17
2022-12-03T18:04:51.092Z,41.63
2022-12-03T18:07:17.713Z,48.35
2022-12-03T18:09:44.324Z,47.70
2022-12-03T18:12:10.954Z,48.40
2022-12-03T18:14:37.607Z,47.33
2022-12-03T18:17:05.163Z,54.13
2022-12-03T18:19:31.813Z,51.95
2022-12-03T18:21:58.495Z,51.45
2022-12-03T18:24:25.415Z,56.75
2022-12-03T18:26:52.040Z,54.63
2022-12-03T18:29:18.714Z,44.22
2022-12-03T18:31:45.465Z,51.80
2022-12-03T18:34:12.170Z,49.78
2022-12-03T18:36:39.710Z,49.60
2022-12-03T18:39:09.203Z,42.58
2022-12-03T18:41:36.412Z,44.97
2022-12-03T18:44:06.649Z,49.65
2022-12-03T18:46:53.138Z,51.47
2022-12-03T18:49:20.405Z,47.33
2022-12-03T18:51:48.298Z,47.58
2022-12-03T18:54:15.233Z,50.20
2022-12-03T18:56:41.909Z,53.17
2022-12-03T18:59:09.288Z,47.17
2022-12-03T19:01:36.447Z,48.22
2022-12-03T19:04:03.638Z,49.95
2022-12-03T19:06:30.923Z,61.72
2022-12-03T19:08:57.952Z,56.50
2022-12-03T19:11:24.762Z,55.67
2022-12-03T19:13:52.056Z,54.35
2022-12-03T19:16:19.020Z,58.22
2022-12-03T19:18:45.844Z,54.40
2022-12-03T19:21:15.461Z,47.17
2022-12-03T19:24:04.200Z,54.97
2022-12-03T19:26:30.902Z,52.03
2022-12-03T19:28:57.563Z,53.13
2022-12-03T19:31:24.405Z,54.95
2022-12-03T19:33:51.831Z,49.70
2022-12-03T19:36:27.403Z,54.10
2022-12-03T19:38:58.347Z,58.00
2022-12-03T19:41:28.095Z,53.47
2022-12-03T19:43:56.401Z,52.22
2022-12-03T19:46:26.208Z,53.97
2022-12-03T19:48:53.815Z,55.42
2022-12-03T19:51:34.218Z,57.05
2022-12-03T19:54:03.052Z,53.90
2022-12-03T19:56:30.402Z,57.65
2022-12-03T19:58:57.917Z,50.13
2022-12-03T20:01:30.724Z,49.75
2022-12-03T20:03:59.499Z,49.17
2022-12-03T20:06:29.791Z,53.03
2022-12-03T20:09:01.938Z,53.92
2022-12-03T20:11:31.264Z,59.85
2022-12-03T20:14:00.527Z,68.80
2022-12-03T20:16:28.177Z,65.40
2022-12-03T20:19:00.753Z,55.45
2022-12-03T20:21:30.312Z,47.58
2022-12-03T20:23:57.306Z,54.88
2022-12-03T20:26:24.486Z,49.42
2022-12-03T20:28:54.188Z,48.13
2022-12-03T20:31:23.048Z,51.72
2022-12-03T20:33:52.575Z,49.15
2022-12-03T20:36:21.036Z,51.95
2022-12-03T20:38:47.704Z,50.40
2022-12-03T20:41:21.384Z,52.38
2022-12-03T20:43:48.485Z,52.42
2022-12-03T20:46:18.832Z,52.03
2022-12-03T20:48:45.969Z,53.75
2022-12-03T20:51:16.329Z,52.10
2022-12-03T20:53:44.714Z,52.08
2022-12-03T20:56:20.557Z,56.70
2022-12-03T20:58:48.951Z,54.95
2022-12-03T21:01:19.763Z,56.65
2022-12-03T21:03:47.814Z,56.30
2022-12-03T21:06:15.497Z,50.67
2022-12-03T21:08:43.420Z,57.60
2022-12-03T21:13:41.221Z,57.58
2022-12-03T21:16:09.872Z,62.65
2022-12-03T21:18:36.647Z,54.28
2022-12-03T21:21:03.867Z,60.35
2022-12-03T21:23:32.515Z,54.83
2022-12-03T21:28:31.100Z,57.47
2022-12-03T21:31:06.847Z,56.47
2022-12-03T21:33:34.805Z,65.18
2022-12-03T21:36:01.931Z,61.67
2022-12-03T21:38:29.598Z,58.03
2022-12-03T21:40:56.620Z,62.13
2022-12-03T21:43:23.844Z,60.80
2022-12-03T21:45:51.034Z,52.35
2022-12-03T21:48:18.222Z,58.80
2022-12-03T21:50:45.865Z,61.13
2022-12-03T21:53:13.005Z,59.25
2022-12-03T21:55:40.844Z,61.95
2022-12-03T21:58:09.117Z,59.03
2022-12-03T22:00:36.281Z,57.97
2022-12-03T22:03:03.040Z,62.30
2022-12-03T22:05:29.700Z,51.83
2022-12-03T22:07:56.365Z,52.20
2022-12-03T22:10:23.081Z,47.13
2022-12-03T22:12:49.719Z,56.58
2022-12-03T22:15:19.160Z,46.50
2022-12-03T22:17:46.768Z,48.92
2022-12-03T22:20:14.158Z,47.78
2022-12-03T22:22:40.880Z,46.45
2022-12-03T22:25:08.107Z,48.25
2022-12-03T22:27:34.791Z,46.92
2022-12-03T22:30:01.993Z,47.25
2022-12-03T22:32:28.649Z,46.03
2022-12-03T22:34:55.275Z,39.58
2022-12-03T22:37:21.892Z,41.88
2022-12-03T22:39:48.540Z,43.92
2022-12-03T22:42:15.179Z,43.60
2022-12-03T22:44:41.801Z,45.80
2022-12-03T22:47:08.516Z,44.50
2022-12-03T22:49:35.097Z,46.63
2022-12-03T22:52:01.763Z,46.55
2022-12-03T22:54:28.482Z,47.70
2022-12-03T22:56:55.084Z,50.50
2022-12-03T22:59:21.676Z,47.55
2022-12-03T23:01:48.500Z,44.10
2022-12-03T23:04:15.194Z,47.13
2022-12-03T23:06:43.493Z,48.45
2022-12-03T23:09:10.276Z,51.35
2022-12-03T23:11:37.996Z,48.88
2022-12-03T23:14:05.572Z,54.05
2022-12-03T23:16:33.733Z,50.53
2022-12-03T23:19:01.772Z,50.05
2022-12-03T23:24:01.849Z,54.13
2022-12-03T23:26:29.624Z,56.63
2022-12-03T23:28:56.586Z,57.45
2022-12-03T23:31:28.542Z,62.47
2022-12-03T23:33:56.891Z,52.53
2022-12-03T23:36:24.689Z,54.08
2022-12-03T23:38:51.422Z,59.08
2022-12-03T23:41:20.131Z,55.13
2022-12-03T23:43:46.864Z,55.55
2022-12-03T23:46:19.214Z,60.17
2022-12-03T23:48:46.272Z,54.28
2022-12-03T23:51:16.379Z,51.10
2022-12-03T23:53:43.540Z,53.65
2022-12-03T23:56:13.363Z,50.47
2022-12-03T23:58:40.193Z,54.50
